createdAt,value
2022-12-27T00:01:17.210Z,0.83
2022-12-27T00:03:44.879Z,0.93
2022-12-27T00:06:13.594Z,0.87
2022-12-27T00:08:40.637Z,0.97
2022-12-27T00:11:09.283Z,0.80
2022-12-27T00:13:36.420Z,1.00
2022-12-27T00:16:07.695Z,0.90
2022-12-27T00:18:34.845Z,0.90
2022-12-27T00:21:02.691Z,0.90
2022-12-27T00:23:31.928Z,1.10
2022-12-27T00:26:02.779Z,0.90
2022-12-27T00:28:30.571Z,0.70
2022-12-27T00:30:57.883Z,0.90
2022-12-27T00:33:25.243Z,1.00
2022-12-27T00:35:52.329Z,1.20
2022-12-27T00:38:19.527Z,1.07
2022-12-27T00:40:46.629Z,1.00
2022-12-27T00:43:13.686Z,1.30
2022-12-27T00:45:40.772Z,0.80
2022-12-27T00:48:07.888Z,1.13
2022-12-27T00:50:35.026Z,0.93
2022-12-27T00:53:02.132Z,0.77
2022-12-27T00:55:29.258Z,1.00
2022-12-27T00:57:56.377Z,1.53
2022-12-27T01:00:23.445Z,0.80
2022-12-27T01:02:50.544Z,1.00
2022-12-27T01:05:17.829Z,0.70
2022-12-27T01:07:45.024Z,0.97
2022-12-27T01:10:12.197Z,0.90
2022-12-27T01:12:40.415Z,0.93
2022-12-27T01:15:08.469Z,0.70
2022-12-27T01:17:35.736Z,0.67
2022-12-27T01:20:02.839Z,0.90
2022-12-27T01:22:29.920Z,0.90
2022-12-27T01:24:56.961Z,0.80
2022-12-27T01:27:24.114Z,0.90
2022-12-27T01:29:51.171Z,0.90
2022-12-27T01:32:18.259Z,0.87
2022-12-27T01:34:45.325Z,0.90
2022-12-27T01:37:12.394Z,0.80
2022-12-27T01:39:39.455Z,1.03
2022-12-27T01:42:30.356Z,1.00
2022-12-27T01:44:58.456Z,0.70
2022-12-27T01:47:44.189Z,0.90
2022-12-27T01:50:20.942Z,1.10
2022-12-27T01:52:53.946Z,0.87
2022-12-27T01:55:27.983Z,1.00
2022-12-27T01:57:56.839Z,0.90
2022-12-27T02:00:24.055Z,0.67
2022-12-27T02:02:51.473Z,0.97
2022-12-27T02:05:19.886Z,0.80
2022-12-27T02:07:55.753Z,0.80
2022-12-27T02:10:22.921Z,0.70
2022-12-27T02:12:50.004Z,0.70
2022-12-27T02:15:17.135Z,0.90
2022-12-27T02:17:44.200Z,0.70
2022-12-27T02:20:11.277Z,0.80
2022-12-27T02:23:15.940Z,0.77
2022-12-27T02:25:42.994Z,0.80
2022-12-27T02:28:28.842Z,0.50
2022-12-27T02:30:59.313Z,0.80
2022-12-27T02:33:30.329Z,0.70
2022-12-27T02:36:00.385Z,0.80
2022-12-27T02:38:33.535Z,0.90
2022-12-27T02:41:21.113Z,0.60
2022-12-27T02:44:06.989Z,0.70
2022-12-27T02:46:52.846Z,0.60
2022-12-27T02:49:48.992Z,0.80
2022-12-27T02:52:37.587Z,0.67
2022-12-27T02:55:14.085Z,0.70
2022-12-27T02:57:43.950Z,0.80
2022-12-27T03:00:39.016Z,1.00
2022-12-27T03:03:21.059Z,0.90
2022-12-27T03:06:18.665Z,0.90
2022-12-27T03:08:58.631Z,1.00
2022-12-27T03:11:45.999Z,1.10
2022-12-27T03:14:37.368Z,0.97
2022-12-27T03:17:11.117Z,0.73
2022-12-27T03:20:03.472Z,0.50
2022-12-27T03:22:49.908Z,1.10
2022-12-27T03:25:29.776Z,0.90
2022-12-27T03:28:17.993Z,0.80
2022-12-27T03:31:04.958Z,1.10
2022-12-27T03:33:32.994Z,0.93
2022-12-27T03:36:22.166Z,0.93
2022-12-27T03:39:15.399Z,0.90
2022-12-27T03:42:06.063Z,0.97
2022-12-27T03:44:33.475Z,0.80
2022-12-27T03:47:01.886Z,1.00
2022-12-27T03:49:34.845Z,1.00
2022-12-27T03:52:05.979Z,0.70
2022-12-27T03:54:40.600Z,1.20
2022-12-27T03:57:09.963Z,0.90
2022-12-27T03:59:37.015Z,1.07
2022-12-27T04:02:04.660Z,0.90
2022-12-27T04:04:31.857Z,1.30
2022-12-27T04:06:58.915Z,1.20
2022-12-27T04:09:44.654Z,1.20
2022-12-27T04:12:30.604Z,0.90
2022-12-27T04:15:16.472Z,1.00
2022-12-27T04:18:02.475Z,1.07
2022-12-27T04:20:48.514Z,1.17
2022-12-27T04:23:34.440Z,1.23
2022-12-27T04:26:20.292Z,0.80
2022-12-27T04:29:06.166Z,1.03
2022-12-27T04:31:52.008Z,1.20
2022-12-27T04:34:37.940Z,0.97
2022-12-27T04:37:05.103Z,1.30
2022-12-27T04:39:32.666Z,1.10
2022-12-27T04:42:18.710Z,1.20
2022-12-27T04:45:05.451Z,1.20
2022-12-27T04:47:53.529Z,1.30
2022-12-27T04:50:46.632Z,0.80
2022-12-27T04:53:33.735Z,0.90
2022-12-27T04:56:01.089Z,1.17
2022-12-27T04:58:28.552Z,1.10
2022-12-27T05:01:15.096Z,0.97
2022-12-27T05:03:42.791Z,1.03
2022-12-27T05:06:10.076Z,1.00
2022-12-27T05:08:56.013Z,0.93
2022-12-27T05:11:49.428Z,0.90
2022-12-27T05:14:16.735Z,1.00
2022-12-27T05:16:44.723Z,0.87
2022-12-27T05:19:12.711Z,0.80
2022-12-27T05:21:40.564Z,0.63
2022-12-27T05:24:26.297Z,0.90
2022-12-27T05:26:56.478Z,0.80
2022-12-27T05:29:23.545Z,1.00
2022-12-27T05:31:50.585Z,1.20
2022-12-27T05:34:17.676Z,1.03
2022-12-27T05:36:45.064Z,0.90
2022-12-27T05:39:12.174Z,0.90
2022-12-27T05:41:39.233Z,0.87
2022-12-27T05:44:07.618Z,0.80
2022-12-27T05:46:35.743Z,0.90
2022-12-27T05:49:02.969Z,0.67
2022-12-27T05:51:30.067Z,1.00
2022-12-27T05:53:57.153Z,0.80
2022-12-27T05:56:24.224Z,0.80
2022-12-27T05:58:53.382Z,1.10
2022-12-27T06:01:20.680Z,0.60
2022-12-27T06:03:47.784Z,0.70
2022-12-27T06:06:15.041Z,0.90
2022-12-27T06:08:42.276Z,0.90
2022-12-27T06:11:10.699Z,0.73
2022-12-27T06:13:38.275Z,0.80
2022-12-27T06:16:06.744Z,0.57
2022-12-27T06:18:34.918Z,0.60
2022-12-27T06:21:13.292Z,0.60
2022-12-27T06:23:41.050Z,0.50
2022-12-27T06:26:09.226Z,0.50
2022-12-27T06:28:36.491Z,0.60
2022-12-27T06:31:03.882Z,0.60
2022-12-27T06:33:31.047Z,0.53
2022-12-27T06:35:58.488Z,0.40
2022-12-27T06:38:25.717Z,0.77
2022-12-27T06:40:52.797Z,0.73
2022-12-27T06:43:19.900Z,0.80
2022-12-27T06:45:55.790Z,0.93
2022-12-27T06:48:22.880Z,0.80
2022-12-27T06:50:49.968Z,0.90
2022-12-27T06:53:17.013Z,0.63
2022-12-27T06:55:44.139Z,0.60
2022-12-27T06:58:12.787Z,0.67
2022-12-27T07:00:40.326Z,0.67
2022-12-27T07:03:07.434Z,0.50
2022-12-27T07:05:37.641Z,0.80
2022-12-27T07:08:04.721Z,0.50
2022-12-27T07:10:31.913Z,0.67
2022-12-27T07:12:59.107Z,0.70
2022-12-27T07:15:26.741Z,0.80
2022-12-27T07:17:53.896Z,0.77
2022-12-27T07:20:21.015Z,0.90
2022-12-27T07:22:48.061Z,0.60
2022-12-27T07:25:15.156Z,0.60
2022-12-27T07:27:42.235Z,0.60
2022-12-27T07:30:09.649Z,1.40
2022-12-27T07:32:36.706Z,0.77
2022-12-27T07:35:04.000Z,0.90
2022-12-27T07:37:31.062Z,0.70
2022-12-27T07:39:58.117Z,0.90
2022-12-27T07:42:25.199Z,0.83
2022-12-27T07:44:52.362Z,0.80
2022-12-27T07:47:19.598Z,0.90
2022-12-27T07:49:46.639Z,0.80
2022-12-27T07:52:13.705Z,0.70
2022-12-27T07:54:40.733Z,0.80
2022-12-27T07:57:07.839Z,0.93
2022-12-27T07:59:34.884Z,0.90
2022-12-27T08:02:04.929Z,1.00
2022-12-27T08:04:32.985Z,0.70
2022-12-27T08:07:04.686Z,0.90
2022-12-27T08:09:34.544Z,0.90
2022-12-27T08:12:01.679Z,0.90
2022-12-27T08:14:29.518Z,1.00
2022-12-27T08:16:58.613Z,0.90
2022-12-27T08:19:25.672Z,0.97
2022-12-27T08:21:52.747Z,1.10
2022-12-27T08:24:19.844Z,1.00
2022-12-27T08:26:46.890Z,1.17
2022-12-27T08:29:14.036Z,1.20
2022-12-27T08:31:41.707Z,1.10
2022-12-27T08:34:08.778Z,0.90
2022-12-27T08:36:54.577Z,1.30
2022-12-27T08:39:22.534Z,1.20
2022-12-27T08:41:49.569Z,1.30
2022-12-27T08:44:16.654Z,1.00
2022-12-27T08:46:43.771Z,1.10
2022-12-27T08:49:10.901Z,1.20
2022-12-27T08:51:41.308Z,1.17
2022-12-27T08:54:08.933Z,1.20
2022-12-27T08:56:36.056Z,1.17
2022-12-27T08:59:03.198Z,1.07
2022-12-27T09:01:30.375Z,1.20
2022-12-27T09:03:57.641Z,1.10
2022-12-27T09:06:25.685Z,1.10
2022-12-27T09:08:54.499Z,1.10
2022-12-27T09:11:22.932Z,0.97
2022-12-27T09:13:50.216Z,1.10
2022-12-27T09:16:18.938Z,0.90
2022-12-27T09:18:48.383Z,1.10
2022-12-27T09:21:16.942Z,1.00
2022-12-27T09:23:44.081Z,1.30
2022-12-27T09:26:15.405Z,1.10
2022-12-27T09:28:43.009Z,1.00
2022-12-27T09:31:11.129Z,0.93
2022-12-27T09:33:38.681Z,0.97
2022-12-27T09:36:09.089Z,1.20
2022-12-27T09:38:36.426Z,1.00
2022-12-27T09:41:19.341Z,0.90
2022-12-27T09:44:10.793Z,0.97
2022-12-27T09:46:47.008Z,0.90
2022-12-27T09:49:15.986Z,0.93
2022-12-27T09:51:47.805Z,1.00
2022-12-27T09:54:16.506Z,0.77
2022-12-27T09:59:36.708Z,0.83
2022-12-27T10:02:04.856Z,1.00
2022-12-27T10:05:09.712Z,1.00
2022-12-27T10:07:41.148Z,0.80
2022-12-27T10:10:11.209Z,1.20
2022-12-27T10:12:50.295Z,0.80
2022-12-27T10:15:34.729Z,0.70
2022-12-27T10:18:09.360Z,0.87
2022-12-27T10:20:48.332Z,1.00
2022-12-27T10:23:18.105Z,1.10
2022-12-27T10:25:46.644Z,1.03
2022-12-27T10:30:56.715Z,1.03
2022-12-27T10:33:28.327Z,1.30
2022-12-27T10:35:55.381Z,1.00
2022-12-27T10:38:22.527Z,1.10
2022-12-27T10:40:49.535Z,1.10
2022-12-27T10:43:21.551Z,0.83
2022-12-27T10:45:49.076Z,1.00
2022-12-27T10:48:23.667Z,0.83
2022-12-27T10:50:55.853Z,1.13
2022-12-27T10:53:46.207Z,0.77
2022-12-27T10:56:26.481Z,0.70
2022-12-27T10:58:58.792Z,0.70
2022-12-27T11:01:27.711Z,1.10
2022-12-27T11:04:19.675Z,0.80
2022-12-27T11:06:48.751Z,0.80
2022-12-27T11:09:27.922Z,0.80
2022-12-27T11:12:16.636Z,0.90
2022-12-27T11:15:02.409Z,0.90
2022-12-27T11:17:38.649Z,1.00
2022-12-27T11:20:17.743Z,0.80
2022-12-27T11:22:56.527Z,0.90
2022-12-27T11:25:23.917Z,1.00
2022-12-27T11:27:52.728Z,0.83
2022-12-27T11:30:23.998Z,1.00
2022-12-27T11:32:51.344Z,0.90
2022-12-27T11:35:20.071Z,0.70
2022-12-27T11:37:47.767Z,0.77
2022-12-27T11:40:34.638Z,0.80
2022-12-27T11:43:08.868Z,0.70
2022-12-27T11:45:48.296Z,0.93
2022-12-27T11:48:21.886Z,0.70
2022-12-27T11:50:57.520Z,0.87
2022-12-27T11:53:24.642Z,0.70
2022-12-27T11:55:51.717Z,0.80
2022-12-27T11:58:18.824Z,0.77
2022-12-27T12:00:48.652Z,0.80
2022-12-27T12:03:25.102Z,0.90
2022-12-27T12:05:55.262Z,0.80
2022-12-27T12:08:22.676Z,0.70
2022-12-27T12:11:01.876Z,0.80
2022-12-27T12:13:40.933Z,0.90
2022-12-27T12:16:26.923Z,0.80
2022-12-27T12:19:03.778Z,0.90
2022-12-27T12:21:46.154Z,0.80
2022-12-27T12:24:13.215Z,0.80
2022-12-27T12:26:58.945Z,1.00
2022-12-27T12:29:28.738Z,0.70
2022-12-27T12:32:04.982Z,0.80
2022-12-27T12:34:32.058Z,0.90
2022-12-27T12:37:05.289Z,0.93
2022-12-27T12:39:41.101Z,1.17
2022-12-27T12:42:19.008Z,0.70
2022-12-27T12:44:55.205Z,0.70
2022-12-27T12:47:34.467Z,0.90
2022-12-27T12:50:13.193Z,1.00
2022-12-27T12:52:40.705Z,0.90
2022-12-27T12:55:22.924Z,1.03
2022-12-27T12:57:58.257Z,1.20
2022-12-27T13:00:43.327Z,0.80
2022-12-27T13:03:48.880Z,0.80
2022-12-27T13:06:34.490Z,0.73
2022-12-27T13:09:04.434Z,0.80
2022-12-27T13:11:50.252Z,0.80
2022-12-27T13:14:23.000Z,1.07
2022-12-27T13:16:52.805Z,0.80
2022-12-27T13:19:19.887Z,0.97
2022-12-27T13:21:58.939Z,1.07
2022-12-27T13:24:29.765Z,1.00
2022-12-27T13:27:15.616Z,0.97
2022-12-27T13:29:45.760Z,0.93
2022-12-27T13:32:21.734Z,1.10
2022-12-27T13:34:48.803Z,1.00
2022-12-27T13:37:25.114Z,1.20
2022-12-27T13:40:15.668Z,1.00
2022-12-27T13:43:00.399Z,1.10
2022-12-27T13:45:27.516Z,1.30
2022-12-27T13:47:57.634Z,0.97
2022-12-27T13:50:44.993Z,1.10
2022-12-27T13:53:18.374Z,0.80
2022-12-27T13:55:57.646Z,0.77
2022-12-27T13:58:27.519Z,1.20
2022-12-27T14:00:54.603Z,1.50
2022-12-27T14:03:44.639Z,1.10
2022-12-27T14:06:34.995Z,1.10
2022-12-27T14:09:20.743Z,1.50
2022-12-27T14:12:06.494Z,1.20
2022-12-27T14:14:33.852Z,0.80
2022-12-27T14:17:22.807Z,1.00
2022-12-27T14:19:55.672Z,1.20
2022-12-27T14:22:22.950Z,1.10
2022-12-27T14:25:16.239Z,1.37
2022-12-27T14:27:52.243Z,0.90
2022-12-27T14:30:25.469Z,1.03
2022-12-27T14:32:52.546Z,0.93
2022-12-27T14:35:33.444Z,0.97
2022-12-27T14:38:03.274Z,0.77
2022-12-27T14:40:57.006Z,1.13
2022-12-27T14:43:33.066Z,1.20
2022-12-27T14:46:18.693Z,1.10
2022-12-27T14:49:04.571Z,1.47
2022-12-27T14:52:00.393Z,1.10
2022-12-27T14:54:37.718Z,0.97
2022-12-27T14:57:05.621Z,1.10
2022-12-27T14:59:33.589Z,1.10
2022-12-27T15:02:19.247Z,1.10
2022-12-27T15:05:05.115Z,1.20
2022-12-27T15:07:32.164Z,1.10
2022-12-27T15:10:14.633Z,1.17
2022-12-27T15:12:44.705Z,0.80
2022-12-27T15:15:20.654Z,1.03
2022-12-27T15:18:00.480Z,0.90
2022-12-27T15:20:36.673Z,0.87
2022-12-27T15:23:22.326Z,1.20
2022-12-27T15:25:52.538Z,1.10
2022-12-27T15:28:19.605Z,0.97
2022-12-27T15:30:49.868Z,1.10
2022-12-27T15:33:19.709Z,0.90
2022-12-27T15:35:57.235Z,1.10
2022-12-27T15:38:41.191Z,1.33
2022-12-27T15:41:08.320Z,1.20
2022-12-27T15:43:47.695Z,1.10
2022-12-27T15:46:23.639Z,0.90
2022-12-27T15:48:56.734Z,1.23
2022-12-27T15:51:41.904Z,1.10
2022-12-27T15:54:18.119Z,1.20
2022-12-27T15:56:51.124Z,1.33
2022-12-27T15:59:36.773Z,1.70
2022-12-27T16:02:24.202Z,1.73
2022-12-27T16:05:02.684Z,1.50
2022-12-27T16:07:38.771Z,1.53
2022-12-27T16:10:24.597Z,1.50
2022-12-27T16:12:51.901Z,1.37
2022-12-27T16:15:52.155Z,1.40
2022-12-27T16:18:22.016Z,1.30
2022-12-27T16:21:04.284Z,1.30
2022-12-27T16:23:57.528Z,1.20
2022-12-27T16:26:35.204Z,1.50
2022-12-27T16:29:07.386Z,1.40
2022-12-27T16:31:40.403Z,1.27
2022-12-27T16:34:12.387Z,1.50
2022-12-27T16:36:44.782Z,1.30
2022-12-27T16:39:11.858Z,1.40
2022-12-27T16:42:02.031Z,1.80
2022-12-27T16:44:31.846Z,2.33
2022-12-27T16:47:06.852Z,1.90
2022-12-27T16:49:51.296Z,1.90
2022-12-27T16:52:44.515Z,3.10
2022-12-27T16:55:14.692Z,2.70
2022-12-27T16:57:46.334Z,2.13
2022-12-27T17:00:25.309Z,1.73
2022-12-27T17:02:52.372Z,1.73
2022-12-27T17:05:22.597Z,1.80
2022-12-27T17:07:50.332Z,1.73
2022-12-27T17:10:26.660Z,1.90
2022-12-27T17:13:16.439Z,1.70
2022-12-27T17:16:02.001Z,1.70
2022-12-27T17:18:31.468Z,2.03
2022-12-27T17:21:02.030Z,2.43
2022-12-27T17:23:29.443Z,1.37
2022-12-27T17:26:03.593Z,1.90
2022-12-27T17:28:34.992Z,2.33
2022-12-27T17:31:09.494Z,2.40
2022-12-27T17:33:48.893Z,2.33
2022-12-27T17:36:15.950Z,2.40
2022-12-27T17:38:57.182Z,2.10
2022-12-27T17:42:02.387Z,2.30
2022-12-27T17:44:39.116Z,2.80
2022-12-27T17:47:25.567Z,3.00
2022-12-27T17:49:53.642Z,2.17
2022-12-27T17:52:44.244Z,2.10
2022-12-27T17:55:36.181Z,2.50
2022-12-27T17:58:05.751Z,2.50
2022-12-27T18:00:34.505Z,2.67
2022-12-27T18:03:03.505Z,2.10
2022-12-27T18:05:31.866Z,2.43
2022-12-27T18:08:01.860Z,2.70
2022-12-27T18:10:30.593Z,2.33
2022-12-27T18:12:59.886Z,2.73
2022-12-27T18:15:28.378Z,2.50
2022-12-27T18:17:58.871Z,2.37
2022-12-27T18:20:28.780Z,3.50
2022-12-27T18:23:01.749Z,3.10
2022-12-27T18:25:37.570Z,2.70
2022-12-27T18:28:04.702Z,2.30
2022-12-27T18:30:34.992Z,2.10
2022-12-27T18:33:02.868Z,2.30
2022-12-27T18:35:30.599Z,2.10
2022-12-27T18:37:57.780Z,2.27
2022-12-27T18:40:26.159Z,2.20
2022-12-27T18:42:54.481Z,2.60
2022-12-27T18:45:23.597Z,2.07
2022-12-27T18:47:52.848Z,2.40
2022-12-27T18:50:27.499Z,2.30
2022-12-27T18:53:05.046Z,2.03
2022-12-27T18:55:32.462Z,2.57
2022-12-27T18:58:20.959Z,2.67
2022-12-27T19:00:49.853Z,2.40
2022-12-27T19:03:18.317Z,2.80
2022-12-27T19:06:03.253Z,2.53
2022-12-27T19:08:33.267Z,2.53
2022-12-27T19:11:00.605Z,2.27
2022-12-27T19:13:50.793Z,2.40
2022-12-27T19:16:24.102Z,2.70
2022-12-27T19:18:53.120Z,3.17
2022-12-27T19:21:20.754Z,2.63
2022-12-27T19:23:49.158Z,2.60
2022-12-27T19:26:16.235Z,2.37
2022-12-27T19:28:44.270Z,2.67
2022-12-27T19:31:16.279Z,2.17
2022-12-27T19:33:44.554Z,2.60
2022-12-27T19:36:11.760Z,4.70
2022-12-27T19:38:47.496Z,4.13
2022-12-27T19:41:15.225Z,4.67
2022-12-27T19:43:44.159Z,4.17
2022-12-27T19:46:12.464Z,3.17
2022-12-27T19:48:39.699Z,2.27
2022-12-27T19:51:07.448Z,2.50
2022-12-27T19:53:37.775Z,6.30
2022-12-27T19:56:05.580Z,3.00
2022-12-27T19:58:32.627Z,2.30
2022-12-27T20:01:00.193Z,2.70
2022-12-27T20:03:27.533Z,3.00
2022-12-27T20:06:12.599Z,3.47
2022-12-27T20:08:48.473Z,3.40
2022-12-27T20:11:16.853Z,2.60
2022-12-27T20:13:43.921Z,4.10
2022-12-27T20:16:12.392Z,3.13
2022-12-27T20:18:40.187Z,4.20
2022-12-27T20:21:07.992Z,2.90
2022-12-27T20:23:35.063Z,2.90
2022-12-27T20:26:03.222Z,4.07
2022-12-27T20:28:30.374Z,3.93
2022-12-27T20:30:57.515Z,2.73
2022-12-27T20:33:24.618Z,4.37
2022-12-27T20:35:58.199Z,3.30
2022-12-27T20:38:25.641Z,4.33
2022-12-27T20:40:53.009Z,4.53
2022-12-27T20:43:20.173Z,5.40
2022-12-27T20:45:47.984Z,3.90
2022-12-27T20:48:15.491Z,3.20
2022-12-27T20:50:42.618Z,4.93
2022-12-27T20:53:09.724Z,4.40
2022-12-27T20:55:36.876Z,3.20
2022-12-27T20:58:04.042Z,3.50
2022-12-27T21:00:31.161Z,3.50
2022-12-27T21:02:58.302Z,2.83
2022-12-27T21:05:25.451Z,2.93
2022-12-27T21:07:52.500Z,3.27
2022-12-27T21:10:19.543Z,4.10
2022-12-27T21:12:46.626Z,2.50
2022-12-27T21:15:13.746Z,2.70
2022-12-27T21:17:40.845Z,1.53
2022-12-27T21:20:10.921Z,1.87
2022-12-27T21:22:38.028Z,1.90
2022-12-27T21:25:05.278Z,1.77
2022-12-27T21:27:32.397Z,1.60
2022-12-27T21:29:59.490Z,1.97
2022-12-27T21:32:26.538Z,1.40
2022-12-27T21:34:53.601Z,1.80
2022-12-27T21:37:21.103Z,1.50
2022-12-27T21:39:48.186Z,1.63
2022-12-27T21:42:15.357Z,2.00
2022-12-27T21:44:42.424Z,1.90
2022-12-27T21:47:09.553Z,1.50
2022-12-27T21:49:40.288Z,1.50
2022-12-27T21:52:07.583Z,1.60
2022-12-27T21:54:35.188Z,1.87
2022-12-27T21:57:03.580Z,1.40
2022-12-27T21:59:30.670Z,2.07
2022-12-27T22:01:57.866Z,1.67
2022-12-27T22:04:24.960Z,1.70
2022-12-27T22:06:52.012Z,1.60
2022-12-27T22:09:19.665Z,1.43
2022-12-27T22:11:47.341Z,1.30
2022-12-27T22:14:14.397Z,1.67
2022-12-27T22:16:41.494Z,1.90
2022-12-27T22:19:09.736Z,2.07
2022-12-27T22:21:37.598Z,1.90
2022-12-27T22:24:05.464Z,1.43
2022-12-27T22:26:34.251Z,1.60
2022-12-27T22:29:02.067Z,1.50
2022-12-27T22:31:31.202Z,1.70
2022-12-27T22:33:58.796Z,1.43
2022-12-27T22:36:26.921Z,1.60
2022-12-27T22:38:58.183Z,1.40
2022-12-27T22:41:29.684Z,1.27
2022-12-27T22:44:04.483Z,1.50
2022-12-27T22:46:58.577Z,1.30
2022-12-27T22:49:19.420Z,1.40
2022-12-27T22:51:46.528Z,1.40
2022-12-27T22:54:13.599Z,1.20
2022-12-27T22:56:41.998Z,1.40
2022-12-27T22:59:09.896Z,1.63
2022-12-27T23:01:37.143Z,1.03
2022-12-27T23:04:05.529Z,1.30
2022-12-27T23:06:33.456Z,1.67
2022-12-27T23:09:00.680Z,1.80
2022-12-27T23:11:32.528Z,1.63
2022-12-27T23:14:00.910Z,1.47
2022-12-27T23:16:28.459Z,1.20
2022-12-27T23:18:55.791Z,1.17
2022-12-27T23:21:24.433Z,1.13
2022-12-27T23:23:52.404Z,1.67
2022-12-27T23:26:21.332Z,1.20
2022-12-27T23:28:50.440Z,1.27
2022-12-27T23:31:17.759Z,1.60
2022-12-27T23:33:45.236Z,1.30
2022-12-27T23:36:12.850Z,1.00
2022-12-27T23:38:40.803Z,1.20
2022-12-27T23:41:08.696Z,1.10
2022-12-27T23:43:54.847Z,0.90
2022-12-27T23:46:29.705Z,1.30
2022-12-27T23:48:57.840Z,1.23
2022-12-27T23:51:25.328Z,0.93
2022-12-27T23:53:52.404Z,1.00
2022-12-27T23:56:20.870Z,1.10
2022-12-27T23:58:48.493Z,1.20
